sensor_id;sensor_type;location;lat;lon;timestamp;temperature;humidity
15959;DHT22;8078;47.822;9.402;2023-03-15T00:01:14;0.70;99.90
15959;DHT22;8078;47.822;9.402;2023-03-15T00:03:41;0.60;99.90
15959;DHT22;8078;47.822;9.402;2023-03-15T00:06:07;0.60;99.90
15959;DHT22;8078;47.822;9.402;2023-03-15T00:08:33;0.60;99.90
15959;DHT22;8078;47.822;9.402;2023-03-15T00:10:59;0.60;99.90
15959;DHT22;8078;47.822;9.402;2023-03-15T00:13:25;0.60;99.90
15959;DHT22;8078;47.822;9.402;2023-03-15T00:15:55;0.60;99.90
15959;DHT22;8078;47.822;9.402;2023-03-15T00:18:21;0.60;99.90
15959;DHT22;8078;47.822;9.402;2023-03-15T00:20:46;0.60;99.90
15959;DHT22;8078;47.822;9.402;2023-03-15T00:23:13;0.60;99.90
15959;DHT22;8078;47.822;9.402;2023-03-15T00:25:39;0.60;99.90
15959;DHT22;8078;47.822;9.402;2023-03-15T00:28:05;0.60;99.90
15959;DHT22;8078;47.822;9.402;2023-03-15T00:30:31;0.60;99.90
15959;DHT22;8078;47.822;9.402;2023-03-15T00:32:57;0.60;99.90
15959;DHT22;8078;47.822;9.402;2023-03-15T00:35:23;0.60;99.90
15959;DHT22;8078;47.822;9.402;2023-03-15T00:37:53;0.60;99.90
15959;DHT22;8078;47.822;9.402;2023-03-15T00:40:19;0.60;99.90
15959;DHT22;8078;47.822;9.402;2023-03-15T00:42:45;0.50;99.90
15959;DHT22;8078;47.822;9.402;2023-03-15T00:45:17;0.60;99.90
15959;DHT22;8078;47.822;9.402;2023-03-15T00:47:43;0.60;99.90
15959;DHT22;8078;47.822;9.402;2023-03-15T00:50:09;0.50;99.90
15959;DHT22;8078;47.822;9.402;2023-03-15T00:52:36;0.50;99.90
15959;DHT22;8078;47.822;9.402;2023-03-15T00:55:02;0.60;99.90
15959;DHT22;8078;47.822;9.402;2023-03-15T00:57:28;0.60;99.90
15959;DHT22;8078;47.822;9.402;2023-03-15T00:59:54;0.50;99.90
15959;DHT22;8078;47.822;9.402;2023-03-15T01:02:20;0.50;99.90
15959;DHT22;8078;47.822;9.402;2023-03-15T01:04:47;0.50;99.90
15959;DHT22;8078;47.822;9.402;2023-03-15T01:07:13;0.60;99.90
15959;DHT22;8078;47.822;9.402;2023-03-15T01:09:38;0.70;99.90
15959;DHT22;8078;47.822;9.402;2023-03-15T01:12:05;0.50;99.90
15959;DHT22;8078;47.822;9.402;2023-03-15T01:14:31;0.40;99.90
15959;DHT22;8078;47.822;9.402;2023-03-15T01:16:59;0.30;99.90
15959;DHT22;8078;47.822;9.402;2023-03-15T01:19:25;0.20;99.90
15959;DHT22;8078;47.822;9.402;2023-03-15T01:21:50;0.20;99.90
15959;DHT22;8078;47.822;9.402;2023-03-15T01:24:16;0.10;99.90
15959;DHT22;8078;47.822;9.402;2023-03-15T01:26:41;0.10;99.90
15959;DHT22;8078;47.822;9.402;2023-03-15T01:29:07;0.00;99.90
15959;DHT22;8078;47.822;9.402;2023-03-15T01:31:33;0.00;99.90
15959;DHT22;8078;47.822;9.402;2023-03-15T01:33:58;-0.10;99.90
15959;DHT22;8078;47.822;9.402;2023-03-15T01:36:25;0.00;99.90
15959;DHT22;8078;47.822;9.402;2023-03-15T01:38:51;-0.10;99.90
15959;DHT22;8078;47.822;9.402;2023-03-15T01:41:18;-0.10;99.90
15959;DHT22;8078;47.822;9.402;2023-03-15T01:43:44;-0.10;99.90
15959;DHT22;8078;47.822;9.402;2023-03-15T01:54:01;-0.20;99.90
15959;DHT22;8078;47.822;9.402;2023-03-15T01:56:30;-0.20;99.90
15959;DHT22;8078;47.822;9.402;2023-03-15T01:58:57;-0.30;99.90
15959;DHT22;8078;47.822;9.402;2023-03-15T02:01:24;-0.40;99.90
15959;DHT22;8078;47.822;9.402;2023-03-15T02:03:56;-0.40;99.90
15959;DHT22;8078;47.822;9.402;2023-03-15T02:06:24;-0.40;99.90
15959;DHT22;8078;47.822;9.402;2023-03-15T02:09:00;-0.40;99.90
15959;DHT22;8078;47.822;9.402;2023-03-15T02:11:26;-0.40;99.90
15959;DHT22;8078;47.822;9.402;2023-03-15T02:13:53;-0.40;99.90
15959;DHT22;8078;47.822;9.402;2023-03-15T02:16:20;-0.50;99.90
15959;DHT22;8078;47.822;9.402;2023-03-15T02:18:46;-0.50;99.90
15959;DHT22;8078;47.822;9.402;2023-03-15T02:23:56;-0.50;99.90
15959;DHT22;8078;47.822;9.402;2023-03-15T02:26:33;-0.50;99.90
15959;DHT22;8078;47.822;9.402;2023-03-15T02:29:01;-0.50;99.90
15959;DHT22;8078;47.822;9.402;2023-03-15T02:31:27;-0.50;99.90
15959;DHT22;8078;47.822;9.402;2023-03-15T02:33:53;-0.50;99.90
15959;DHT22;8078;47.822;9.402;2023-03-15T02:36:23;-0.60;99.90
15959;DHT22;8078;47.822;9.402;2023-03-15T02:38:50;-0.50;99.90
15959;DHT22;8078;47.822;9.402;2023-03-15T02:41:20;-0.50;99.90
15959;DHT22;8078;47.822;9.402;2023-03-15T02:43:52;-0.60;99.90
15959;DHT22;8078;47.822;9.402;2023-03-15T02:46:20;-0.60;99.90
15959;DHT22;8078;47.822;9.402;2023-03-15T02:48:46;-0.60;99.90
15959;DHT22;8078;47.822;9.402;2023-03-15T02:51:23;-0.60;99.90
15959;DHT22;8078;47.822;9.402;2023-03-15T02:53:49;-0.70;99.90
15959;DHT22;8078;47.822;9.402;2023-03-15T02:56:15;-0.70;99.90
15959;DHT22;8078;47.822;9.402;2023-03-15T02:58:42;-0.70;99.90
15959;DHT22;8078;47.822;9.402;2023-03-15T03:01:14;-0.80;99.90
15959;DHT22;8078;47.822;9.402;2023-03-15T03:03:41;-0.80;99.90
15959;DHT22;8078;47.822;9.402;2023-03-15T03:06:07;-0.90;99.90
15959;DHT22;8078;47.822;9.402;2023-03-15T03:08:33;-0.80;99.90
15959;DHT22;8078;47.822;9.402;2023-03-15T03:10:59;-0.90;99.90
15959;DHT22;8078;47.822;9.402;2023-03-15T03:13:24;-0.80;99.90
15959;DHT22;8078;47.822;9.402;2023-03-15T03:15:50;-1.00;99.90
15959;DHT22;8078;47.822;9.402;2023-03-15T03:18:29;-1.10;99.90
15959;DHT22;8078;47.822;9.402;2023-03-15T03:21:00;-1.10;99.90
15959;DHT22;8078;47.822;9.402;2023-03-15T03:23:28;-1.10;99.90
15959;DHT22;8078;47.822;9.402;2023-03-15T03:25:55;-1.20;99.90
15959;DHT22;8078;47.822;9.402;2023-03-15T03:28:22;-1.30;99.90
15959;DHT22;8078;47.822;9.402;2023-03-15T03:30:52;-1.30;99.90
15959;DHT22;8078;47.822;9.402;2023-03-15T03:33:18;-1.30;99.90
15959;DHT22;8078;47.822;9.402;2023-03-15T03:35:44;-1.30;99.90
15959;DHT22;8078;47.822;9.402;2023-03-15T03:38:10;-1.30;99.90
15959;DHT22;8078;47.822;9.402;2023-03-15T03:40:39;-1.40;99.90
15959;DHT22;8078;47.822;9.402;2023-03-15T03:43:05;-1.40;99.90
15959;DHT22;8078;47.822;9.402;2023-03-15T03:45:32;-1.50;99.90
15959;DHT22;8078;47.822;9.402;2023-03-15T03:47:57;-1.40;99.90
15959;DHT22;8078;47.822;9.402;2023-03-15T03:50:23;-1.40;99.90
15959;DHT22;8078;47.822;9.402;2023-03-15T03:52:49;-1.50;99.90
15959;DHT22;8078;47.822;9.402;2023-03-15T03:55:14;-1.50;99.90
15959;DHT22;8078;47.822;9.402;2023-03-15T03:57:41;-1.50;99.90
15959;DHT22;8078;47.822;9.402;2023-03-15T04:00:08;-1.50;99.90
15959;DHT22;8078;47.822;9.402;2023-03-15T04:02:34;-1.50;99.90
15959;DHT22;8078;47.822;9.402;2023-03-15T04:05:00;-1.50;99.90
15959;DHT22;8078;47.822;9.402;2023-03-15T04:07:26;-1.40;99.90
15959;DHT22;8078;47.822;9.402;2023-03-15T04:09:51;-1.40;99.90
15959;DHT22;8078;47.822;9.402;2023-03-15T04:12:17;-1.50;99.90
15959;DHT22;8078;47.822;9.402;2023-03-15T04:14:42;-1.50;99.90
15959;DHT22;8078;47.822;9.402;2023-03-15T04:17:08;-1.60;99.90
15959;DHT22;8078;47.822;9.402;2023-03-15T04:19:34;-1.70;99.90
15959;DHT22;8078;47.822;9.402;2023-03-15T04:22:00;-1.70;99.90
15959;DHT22;8078;47.822;9.402;2023-03-15T04:24:32;-1.80;99.90
15959;DHT22;8078;47.822;9.402;2023-03-15T04:26:58;-1.60;99.90
15959;DHT22;8078;47.822;9.402;2023-03-15T04:29:23;-1.60;99.90
15959;DHT22;8078;47.822;9.402;2023-03-15T04:31:49;-1.70;99.90
15959;DHT22;8078;47.822;9.402;2023-03-15T04:34:14;-1.70;99.90
15959;DHT22;8078;47.822;9.402;2023-03-15T04:36:40;-1.70;99.90
15959;DHT22;8078;47.822;9.402;2023-03-15T04:39:07;-1.70;99.90
15959;DHT22;8078;47.822;9.402;2023-03-15T04:41:34;-1.70;99.90
15959;DHT22;8078;47.822;9.402;2023-03-15T04:44:04;-1.70;99.90
15959;DHT22;8078;47.822;9.402;2023-03-15T04:46:31;-1.70;99.90
15959;DHT22;8078;47.822;9.402;2023-03-15T04:48:57;-1.80;99.90
15959;DHT22;8078;47.822;9.402;2023-03-15T04:51:23;-1.70;99.90
15959;DHT22;8078;47.822;9.402;2023-03-15T04:53:49;-1.80;99.90
15959;DHT22;8078;47.822;9.402;2023-03-15T04:56:14;-1.80;99.90
15959;DHT22;8078;47.822;9.402;2023-03-15T04:58:40;-1.80;99.90
15959;DHT22;8078;47.822;9.402;2023-03-15T05:01:05;-1.70;99.90
15959;DHT22;8078;47.822;9.402;2023-03-15T05:03:31;-1.70;99.90
15959;DHT22;8078;47.822;9.402;2023-03-15T05:05:56;-1.70;99.90
15959;DHT22;8078;47.822;9.402;2023-03-15T05:08:22;-1.70;99.90
15959;DHT22;8078;47.822;9.402;2023-03-15T05:10:48;-1.80;99.90
15959;DHT22;8078;47.822;9.402;2023-03-15T05:13:13;-1.70;99.90
15959;DHT22;8078;47.822;9.402;2023-03-15T05:15:39;-1.70;99.90
15959;DHT22;8078;47.822;9.402;2023-03-15T05:18:05;-1.70;99.90
15959;DHT22;8078;47.822;9.402;2023-03-15T05:20:30;-1.80;99.90
15959;DHT22;8078;47.822;9.402;2023-03-15T05:22:56;-1.90;99.90
15959;DHT22;8078;47.822;9.402;2023-03-15T05:25:23;-1.90;99.90
15959;DHT22;8078;47.822;9.402;2023-03-15T05:27:48;-1.80;99.90
15959;DHT22;8078;47.822;9.402;2023-03-15T05:30:14;-1.80;99.90
15959;DHT22;8078;47.822;9.402;2023-03-15T05:32:40;-1.90;99.90
15959;DHT22;8078;47.822;9.402;2023-03-15T05:35:09;-1.80;99.90
15959;DHT22;8078;47.822;9.402;2023-03-15T05:37:35;-1.80;99.90
15959;DHT22;8078;47.822;9.402;2023-03-15T05:40:01;-1.80;99.90
15959;DHT22;8078;47.822;9.402;2023-03-15T05:42:27;-1.90;99.90
15959;DHT22;8078;47.822;9.402;2023-03-15T05:44:54;-1.80;99.90
15959;DHT22;8078;47.822;9.402;2023-03-15T05:47:21;-1.80;99.90
15959;DHT22;8078;47.822;9.402;2023-03-15T05:49:47;-1.70;99.90
15959;DHT22;8078;47.822;9.402;2023-03-15T05:52:13;-1.50;99.90
15959;DHT22;8078;47.822;9.402;2023-03-15T05:54:38;-1.50;99.90
15959;DHT22;8078;47.822;9.402;2023-03-15T05:57:04;-1.40;99.90
15959;DHT22;8078;47.822;9.402;2023-03-15T05:59:30;-1.50;99.90
15959;DHT22;8078;47.822;9.402;2023-03-15T06:01:56;-1.50;99.90
15959;DHT22;8078;47.822;9.402;2023-03-15T06:04:22;-1.50;99.90
15959;DHT22;8078;47.822;9.402;2023-03-15T06:06:49;-1.50;99.90
15959;DHT22;8078;47.822;9.402;2023-03-15T06:09:14;-1.40;99.90
15959;DHT22;8078;47.822;9.402;2023-03-15T06:11:40;-1.40;99.90
15959;DHT22;8078;47.822;9.402;2023-03-15T06:14:06;-1.40;99.90
15959;DHT22;8078;47.822;9.402;2023-03-15T06:16:31;-1.40;99.90
15959;DHT22;8078;47.822;9.402;2023-03-15T06:18:57;-1.30;99.90
15959;DHT22;8078;47.822;9.402;2023-03-15T06:21:22;-1.20;99.90
15959;DHT22;8078;47.822;9.402;2023-03-15T06:23:50;-1.10;99.90
15959;DHT22;8078;47.822;9.402;2023-03-15T06:26:16;-1.10;99.90
15959;DHT22;8078;47.822;9.402;2023-03-15T06:28:43;-1.00;99.90
15959;DHT22;8078;47.822;9.402;2023-03-15T06:31:11;-0.90;99.90
15959;DHT22;8078;47.822;9.402;2023-03-15T06:33:37;-0.90;99.90
15959;DHT22;8078;47.822;9.402;2023-03-15T06:36:03;-0.70;99.90
15959;DHT22;8078;47.822;9.402;2023-03-15T06:38:29;-0.80;99.90
15959;DHT22;8078;47.822;9.402;2023-03-15T06:40:56;-0.70;99.90
15959;DHT22;8078;47.822;9.402;2023-03-15T06:43:23;-0.50;99.90
15959;DHT22;8078;47.822;9.402;2023-03-15T06:45:49;-0.50;99.90
15959;DHT22;8078;47.822;9.402;2023-03-15T06:48:15;-0.50;99.90
15959;DHT22;8078;47.822;9.402;2023-03-15T06:50:41;-0.50;99.90
15959;DHT22;8078;47.822;9.402;2023-03-15T06:53:07;-0.50;99.90
15959;DHT22;8078;47.822;9.402;2023-03-15T06:55:33;-0.40;99.90
15959;DHT22;8078;47.822;9.402;2023-03-15T06:57:59;-0.40;99.90
15959;DHT22;8078;47.822;9.402;2023-03-15T07:00:24;-0.40;99.90
15959;DHT22;8078;47.822;9.402;2023-03-15T07:02:50;-0.30;99.90
15959;DHT22;8078;47.822;9.402;2023-03-15T07:05:16;-0.30;99.90
15959;DHT22;8078;47.822;9.402;2023-03-15T07:07:41;-0.20;99.90
15959;DHT22;8078;47.822;9.402;2023-03-15T07:10:07;-0.20;99.90
15959;DHT22;8078;47.822;9.402;2023-03-15T07:12:33;-0.20;99.90
15959;DHT22;8078;47.822;9.402;2023-03-15T07:14:59;-0.20;99.90
15959;DHT22;8078;47.822;9.402;2023-03-15T07:17:24;-0.20;99.90
15959;DHT22;8078;47.822;9.402;2023-03-15T07:19:50;-0.10;99.90
15959;DHT22;8078;47.822;9.402;2023-03-15T07:22:16;-0.10;99.90
15959;DHT22;8078;47.822;9.402;2023-03-15T07:24:42;0.00;99.90
15959;DHT22;8078;47.822;9.402;2023-03-15T07:27:11;0.00;99.90
15959;DHT22;8078;47.822;9.402;2023-03-15T07:29:36;0.10;99.90
15959;DHT22;8078;47.822;9.402;2023-03-15T07:32:02;0.10;99.90
15959;DHT22;8078;47.822;9.402;2023-03-15T07:34:28;0.20;99.90
15959;DHT22;8078;47.822;9.402;2023-03-15T07:36:53;0.20;99.90
15959;DHT22;8078;47.822;9.402;2023-03-15T07:39:19;0.10;99.90
15959;DHT22;8078;47.822;9.402;2023-03-15T07:41:45;0.10;99.90
15959;DHT22;8078;47.822;9.402;2023-03-15T07:44:10;0.10;99.90
15959;DHT22;8078;47.822;9.402;2023-03-15T07:46:36;0.10;99.90
15959;DHT22;8078;47.822;9.402;2023-03-15T07:49:01;0.20;99.90
15959;DHT22;8078;47.822;9.402;2023-03-15T07:51:27;0.30;99.90
15959;DHT22;8078;47.822;9.402;2023-03-15T07:53:52;0.40;99.90
15959;DHT22;8078;47.822;9.402;2023-03-15T07:56:18;0.40;99.90
15959;DHT22;8078;47.822;9.402;2023-03-15T07:58:43;0.40;99.90
15959;DHT22;8078;47.822;9.402;2023-03-15T08:01:09;0.40;99.90
15959;DHT22;8078;47.822;9.402;2023-03-15T08:03:34;0.40;99.90
15959;DHT22;8078;47.822;9.402;2023-03-15T08:06:00;0.40;99.90
15959;DHT22;8078;47.822;9.402;2023-03-15T08:08:26;0.30;99.90
15959;DHT22;8078;47.822;9.402;2023-03-15T08:10:51;0.30;99.90
15959;DHT22;8078;47.822;9.402;2023-03-15T08:13:17;0.30;99.90
15959;DHT22;8078;47.822;9.402;2023-03-15T08:15:46;0.30;99.90
15959;DHT22;8078;47.822;9.402;2023-03-15T08:18:12;0.30;99.90
15959;DHT22;8078;47.822;9.402;2023-03-15T08:20:38;0.30;99.90
15959;DHT22;8078;47.822;9.402;2023-03-15T08:23:04;0.50;99.90
15959;DHT22;8078;47.822;9.402;2023-03-15T08:25:29;0.60;99.90
15959;DHT22;8078;47.822;9.402;2023-03-15T08:27:55;0.60;99.90
15959;DHT22;8078;47.822;9.402;2023-03-15T08:30:21;0.80;99.90
15959;DHT22;8078;47.822;9.402;2023-03-15T08:32:48;0.80;99.90
15959;DHT22;8078;47.822;9.402;2023-03-15T08:35:15;0.70;99.90
15959;DHT22;8078;47.822;9.402;2023-03-15T08:37:41;0.70;99.90
15959;DHT22;8078;47.822;9.402;2023-03-15T08:40:11;0.70;99.90
15959;DHT22;8078;47.822;9.402;2023-03-15T08:42:37;0.80;99.90
15959;DHT22;8078;47.822;9.402;2023-03-15T08:45:07;1.10;99.90
15959;DHT22;8078;47.822;9.402;2023-03-15T08:47:34;1.00;99.90
15959;DHT22;8078;47.822;9.402;2023-03-15T08:50:01;1.00;99.90
15959;DHT22;8078;47.822;9.402;2023-03-15T08:52:29;1.10;99.90
15959;DHT22;8078;47.822;9.402;2023-03-15T08:54:55;1.10;99.90
15959;DHT22;8078;47.822;9.402;2023-03-15T08:57:21;1.30;99.90
15959;DHT22;8078;47.822;9.402;2023-03-15T08:59:50;1.50;99.90
15959;DHT22;8078;47.822;9.402;2023-03-15T09:02:16;1.50;99.90
15959;DHT22;8078;47.822;9.402;2023-03-15T09:04:41;1.50;99.90
15959;DHT22;8078;47.822;9.402;2023-03-15T09:07:07;1.30;99.90
15959;DHT22;8078;47.822;9.402;2023-03-15T09:09:33;1.50;99.90
15959;DHT22;8078;47.822;9.402;2023-03-15T09:11:58;1.20;99.90
15959;DHT22;8078;47.822;9.402;2023-03-15T09:14:24;1.40;99.90
15959;DHT22;8078;47.822;9.402;2023-03-15T09:16:49;1.20;99.90
15959;DHT22;8078;47.822;9.402;2023-03-15T09:19:15;1.20;99.90
15959;DHT22;8078;47.822;9.402;2023-03-15T09:21:41;1.20;99.90
15959;DHT22;8078;47.822;9.402;2023-03-15T09:24:06;1.80;99.90
15959;DHT22;8078;47.822;9.402;2023-03-15T09:26:32;1.70;99.90
15959;DHT22;8078;47.822;9.402;2023-03-15T09:28:57;2.00;99.90
15959;DHT22;8078;47.822;9.402;2023-03-15T09:31:23;2.00;99.90
15959;DHT22;8078;47.822;9.402;2023-03-15T09:33:49;1.90;99.90
15959;DHT22;8078;47.822;9.402;2023-03-15T09:36:14;2.00;99.90
15959;DHT22;8078;47.822;9.402;2023-03-15T09:38:42;1.70;99.90
15959;DHT22;8078;47.822;9.402;2023-03-15T09:41:27;1.90;99.90
15959;DHT22;8078;47.822;9.402;2023-03-15T09:47:01;2.00;99.90
15959;DHT22;8078;47.822;9.402;2023-03-15T09:49:48;2.20;99.90
15959;DHT22;8078;47.822;9.402;2023-03-15T09:52:33;2.10;99.90
15959;DHT22;8078;47.822;9.402;2023-03-15T09:55:04;2.40;99.90
15959;DHT22;8078;47.822;9.402;2023-03-15T09:57:40;2.40;99.90
15959;DHT22;8078;47.822;9.402;2023-03-15T10:00:13;2.60;99.90
15959;DHT22;8078;47.822;9.402;2023-03-15T10:02:43;2.60;99.90
15959;DHT22;8078;47.822;9.402;2023-03-15T10:05:21;2.70;99.90
15959;DHT22;8078;47.822;9.402;2023-03-15T10:07:47;2.30;99.90
15959;DHT22;8078;47.822;9.402;2023-03-15T10:10:18;2.60;99.90
15959;DHT22;8078;47.822;9.402;2023-03-15T10:12:50;2.80;99.90
15959;DHT22;8078;47.822;9.402;2023-03-15T10:15:34;2.80;99.90
15959;DHT22;8078;47.822;9.402;2023-03-15T10:18:10;2.50;99.90
15959;DHT22;8078;47.822;9.402;2023-03-15T10:20:45;2.50;99.90
15959;DHT22;8078;47.822;9.402;2023-03-15T10:23:22;2.50;99.90
15959;DHT22;8078;47.822;9.402;2023-03-15T10:25:52;2.80;99.90
15959;DHT22;8078;47.822;9.402;2023-03-15T10:28:29;2.70;99.90
15959;DHT22;8078;47.822;9.402;2023-03-15T10:30:59;2.50;99.90
15959;DHT22;8078;47.822;9.402;2023-03-15T10:33:31;3.00;99.90
15959;DHT22;8078;47.822;9.402;2023-03-15T10:35:59;3.40;99.90
15959;DHT22;8078;47.822;9.402;2023-03-15T10:38:26;3.60;99.90
15959;DHT22;8078;47.822;9.402;2023-03-15T10:40:58;3.30;99.90
15959;DHT22;8078;47.822;9.402;2023-03-15T10:43:27;3.00;99.90
15959;DHT22;8078;47.822;9.402;2023-03-15T10:46:02;2.80;99.90
15959;DHT22;8078;47.822;9.402;2023-03-15T10:48:33;3.00;99.90
15959;DHT22;8078;47.822;9.402;2023-03-15T10:51:05;3.00;99.90
15959;DHT22;8078;47.822;9.402;2023-03-15T10:53:31;3.40;99.90
15959;DHT22;8078;47.822;9.402;2023-03-15T10:56:04;3.30;99.90
15959;DHT22;8078;47.822;9.402;2023-03-15T10:58:47;3.70;99.90
15959;DHT22;8078;47.822;9.402;2023-03-15T11:01:22;3.50;99.90
15959;DHT22;8078;47.822;9.402;2023-03-15T11:04:01;3.40;99.90
15959;DHT22;8078;47.822;9.402;2023-03-15T11:06:27;3.50;99.90
15959;DHT22;8078;47.822;9.402;2023-03-15T11:09:07;3.60;99.90
15959;DHT22;8078;47.822;9.402;2023-03-15T11:14:23;3.60;99.90
15959;DHT22;8078;47.822;9.402;2023-03-15T11:16:55;4.00;99.90
15959;DHT22;8078;47.822;9.402;2023-03-15T11:19:24;3.80;99.90
15959;DHT22;8078;47.822;9.402;2023-03-15T11:21:51;3.50;99.90
15959;DHT22;8078;47.822;9.402;2023-03-15T11:24:43;3.70;99.90
15959;DHT22;8078;47.822;9.402;2023-03-15T11:27:12;4.10;99.90
15959;DHT22;8078;47.822;9.402;2023-03-15T11:29:47;4.30;99.90
15959;DHT22;8078;47.822;9.402;2023-03-15T11:32:24;4.20;99.90
15959;DHT22;8078;47.822;9.402;2023-03-15T11:35:07;4.20;99.90
15959;DHT22;8078;47.822;9.402;2023-03-15T11:37:53;3.80;99.90
15959;DHT22;8078;47.822;9.402;2023-03-15T11:40:21;4.40;99.90
15959;DHT22;8078;47.822;9.402;2023-03-15T11:45:41;4.40;99.90
15959;DHT22;8078;47.822;9.402;2023-03-15T11:51:00;4.30;99.90
15959;DHT22;8078;47.822;9.402;2023-03-15T11:53:30;4.20;99.90
15959;DHT22;8078;47.822;9.402;2023-03-15T11:56:18;4.60;99.90
15959;DHT22;8078;47.822;9.402;2023-03-15T11:58:44;4.20;99.90
15959;DHT22;8078;47.822;9.402;2023-03-15T12:01:26;4.20;99.90
15959;DHT22;8078;47.822;9.402;2023-03-15T12:06:56;4.70;99.90
15959;DHT22;8078;47.822;9.402;2023-03-15T12:09:47;5.10;99.90
15959;DHT22;8078;47.822;9.402;2023-03-15T12:22:51;5.30;99.90
15959;DHT22;8078;47.822;9.402;2023-03-15T12:25:37;4.90;99.90
15959;DHT22;8078;47.822;9.402;2023-03-15T12:28:16;4.60;99.90
15959;DHT22;8078;47.822;9.402;2023-03-15T12:30:44;4.40;99.90
15959;DHT22;8078;47.822;9.402;2023-03-15T12:33:18;4.60;99.90
15959;DHT22;8078;47.822;9.402;2023-03-15T12:35:45;4.40;99.90
15959;DHT22;8078;47.822;9.402;2023-03-15T12:38:15;4.40;99.90
15959;DHT22;8078;47.822;9.402;2023-03-15T12:40:56;4.90;99.90
15959;DHT22;8078;47.822;9.402;2023-03-15T12:43:42;4.70;99.90
15959;DHT22;8078;47.822;9.402;2023-03-15T12:49:10;5.30;99.90
15959;DHT22;8078;47.822;9.402;2023-03-15T12:54:24;4.80;99.90
15959;DHT22;8078;47.822;9.402;2023-03-15T12:56:56;5.00;99.90
15959;DHT22;8078;47.822;9.402;2023-03-15T12:59:34;4.70;99.90
15959;DHT22;8078;47.822;9.402;2023-03-15T13:02:02;4.40;99.90
15959;DHT22;8078;47.822;9.402;2023-03-15T13:04:32;4.50;99.90
15959;DHT22;8078;47.822;9.402;2023-03-15T13:07:12;4.80;99.90
15959;DHT22;8078;47.822;9.402;2023-03-15T13:10:08;4.80;99.90
15959;DHT22;8078;47.822;9.402;2023-03-15T13:12:44;5.20;99.90
15959;DHT22;8078;47.822;9.402;2023-03-15T13:15:18;5.40;99.90
15959;DHT22;8078;47.822;9.402;2023-03-15T13:18:16;5.30;99.90
15959;DHT22;8078;47.822;9.402;2023-03-15T13:20:58;5.00;99.90
15959;DHT22;8078;47.822;9.402;2023-03-15T13:23:31;5.20;99.90
15959;DHT22;8078;47.822;9.402;2023-03-15T13:26:26;5.40;99.90
15959;DHT22;8078;47.822;9.402;2023-03-15T13:31:32;5.00;99.90
15959;DHT22;8078;47.822;9.402;2023-03-15T13:34:18;4.70;99.90
15959;DHT22;8078;47.822;9.402;2023-03-15T13:36:48;4.60;99.90
15959;DHT22;8078;47.822;9.402;2023-03-15T13:39:21;4.70;99.90
15959;DHT22;8078;47.822;9.402;2023-03-15T13:41:49;4.70;99.90
15959;DHT22;8078;47.822;9.402;2023-03-15T13:44:20;5.00;99.90
15959;DHT22;8078;47.822;9.402;2023-03-15T13:46:50;4.90;99.90
15959;DHT22;8078;47.822;9.402;2023-03-15T13:49:17;4.70;99.90
15959;DHT22;8078;47.822;9.402;2023-03-15T13:51:44;4.50;99.90
15959;DHT22;8078;47.822;9.402;2023-03-15T13:54:29;4.60;99.90
15959;DHT22;8078;47.822;9.402;2023-03-15T13:57:11;4.70;99.90
15959;DHT22;8078;47.822;9.402;2023-03-15T13:59:40;4.80;99.90
15959;DHT22;8078;47.822;9.402;2023-03-15T14:03:38;5.20;99.90
15959;DHT22;8078;47.822;9.402;2023-03-15T14:06:11;5.90;99.90
15959;DHT22;8078;47.822;9.402;2023-03-15T14:08:38;5.50;99.90
15959;DHT22;8078;47.822;9.402;2023-03-15T14:11:32;4.90;99.90
15959;DHT22;8078;47.822;9.402;2023-03-15T14:14:00;4.60;99.90
15959;DHT22;8078;47.822;9.402;2023-03-15T14:19:14;4.90;99.90
15959;DHT22;8078;47.822;9.402;2023-03-15T14:21:45;5.20;99.90
15959;DHT22;8078;47.822;9.402;2023-03-15T14:26:58;4.90;99.90
15959;DHT22;8078;47.822;9.402;2023-03-15T14:29:30;5.40;99.90
15959;DHT22;8078;47.822;9.402;2023-03-15T14:32:11;5.00;99.90
15959;DHT22;8078;47.822;9.402;2023-03-15T14:34:46;4.80;99.90
15959;DHT22;8078;47.822;9.402;2023-03-15T14:40:04;4.60;99.90
15959;DHT22;8078;47.822;9.402;2023-03-15T14:42:33;4.50;99.90
15959;DHT22;8078;47.822;9.402;2023-03-15T14:44:58;4.60;99.90
15959;DHT22;8078;47.822;9.402;2023-03-15T14:47:24;4.60;99.90
15959;DHT22;8078;47.822;9.402;2023-03-15T14:49:50;4.70;99.90
15959;DHT22;8078;47.822;9.402;2023-03-15T14:52:15;4.70;99.90
15959;DHT22;8078;47.822;9.402;2023-03-15T14:54:47;4.80;99.90
15959;DHT22;8078;47.822;9.402;2023-03-15T14:57:13;4.90;99.90
15959;DHT22;8078;47.822;9.402;2023-03-15T14:59:39;4.70;99.90
15959;DHT22;8078;47.822;9.402;2023-03-15T15:02:05;4.80;99.90
15959;DHT22;8078;47.822;9.402;2023-03-15T15:04:32;4.90;99.90
15959;DHT22;8078;47.822;9.402;2023-03-15T15:06:58;4.90;99.90
15959;DHT22;8078;47.822;9.402;2023-03-15T15:09:25;4.80;99.90
15959;DHT22;8078;47.822;9.402;2023-03-15T15:11:53;4.70;99.90
15959;DHT22;8078;47.822;9.402;2023-03-15T15:14:19;4.80;99.90
15959;DHT22;8078;47.822;9.402;2023-03-15T15:16:46;4.90;99.90
15959;DHT22;8078;47.822;9.402;2023-03-15T15:19:12;4.90;99.90
15959;DHT22;8078;47.822;9.402;2023-03-15T15:21:38;4.90;99.90
15959;DHT22;8078;47.822;9.402;2023-03-15T15:24:10;4.70;99.90
15959;DHT22;8078;47.822;9.402;2023-03-15T15:26:37;4.70;99.90
15959;DHT22;8078;47.822;9.402;2023-03-15T15:29:02;4.80;99.90
15959;DHT22;8078;47.822;9.402;2023-03-15T15:31:28;4.80;99.90
15959;DHT22;8078;47.822;9.402;2023-03-15T15:33:57;4.80;99.90
15959;DHT22;8078;47.822;9.402;2023-03-15T15:36:26;4.80;99.90
15959;DHT22;8078;47.822;9.402;2023-03-15T15:38:52;4.90;99.90
15959;DHT22;8078;47.822;9.402;2023-03-15T15:41:26;5.00;99.90
15959;DHT22;8078;47.822;9.402;2023-03-15T15:43:52;5.00;99.90
15959;DHT22;8078;47.822;9.402;2023-03-15T15:46:18;4.90;99.90
15959;DHT22;8078;47.822;9.402;2023-03-15T15:48:44;4.90;99.90
15959;DHT22;8078;47.822;9.402;2023-03-15T15:51:18;4.90;99.90
15959;DHT22;8078;47.822;9.402;2023-03-15T15:53:44;4.80;99.90
15959;DHT22;8078;47.822;9.402;2023-03-15T15:56:10;4.70;99.90
15959;DHT22;8078;47.822;9.402;2023-03-15T15:58:40;4.60;99.90
15959;DHT22;8078;47.822;9.402;2023-03-15T16:01:10;4.50;99.90
15959;DHT22;8078;47.822;9.402;2023-03-15T16:03:35;4.60;99.90
15959;DHT22;8078;47.822;9.402;2023-03-15T16:06:01;4.70;99.90
15959;DHT22;8078;47.822;9.402;2023-03-15T16:08:27;4.70;99.90
15959;DHT22;8078;47.822;9.402;2023-03-15T16:10:54;4.60;99.90
15959;DHT22;8078;47.822;9.402;2023-03-15T16:13:20;4.50;99.90
15959;DHT22;8078;47.822;9.402;2023-03-15T16:15:45;4.50;99.90
15959;DHT22;8078;47.822;9.402;2023-03-15T16:18:11;4.50;99.90
15959;DHT22;8078;47.822;9.402;2023-03-15T16:20:38;4.50;99.90
15959;DHT22;8078;47.822;9.402;2023-03-15T16:23:04;4.50;99.90
15959;DHT22;8078;47.822;9.402;2023-03-15T16:25:33;4.60;99.90
15959;DHT22;8078;47.822;9.402;2023-03-15T16:28:00;4.70;99.90
15959;DHT22;8078;47.822;9.402;2023-03-15T16:30:28;4.60;99.90
15959;DHT22;8078;47.822;9.402;2023-03-15T16:32:59;4.70;99.90
15959;DHT22;8078;47.822;9.402;2023-03-15T16:35:34;4.60;99.90
15959;DHT22;8078;47.822;9.402;2023-03-15T16:38:01;4.50;99.90
15959;DHT22;8078;47.822;9.402;2023-03-15T16:40:32;4.50;99.90
15959;DHT22;8078;47.822;9.402;2023-03-15T16:42:58;4.50;99.90
15959;DHT22;8078;47.822;9.402;2023-03-15T16:45:24;4.50;99.90
15959;DHT22;8078;47.822;9.402;2023-03-15T16:47:50;4.40;99.90
15959;DHT22;8078;47.822;9.402;2023-03-15T16:50:17;4.40;99.90
15959;DHT22;8078;47.822;9.402;2023-03-15T16:52:44;4.30;99.90
15959;DHT22;8078;47.822;9.402;2023-03-15T16:55:17;4.30;99.90
15959;DHT22;8078;47.822;9.402;2023-03-15T16:57:43;4.30;99.90
15959;DHT22;8078;47.822;9.402;2023-03-15T17:00:12;4.30;99.90